createdAt,value
2022-08-21T00:02:15.000Z,58.50
2022-08-21T00:04:48.245Z,58.60
2022-08-21T00:07:25.328Z,58.60
2022-08-21T00:09:54.357Z,58.70
2022-08-21T00:12:24.673Z,58.90
2022-08-21T00:14:58.112Z,58.90
2022-08-21T00:17:27.322Z,59.10
2022-08-21T00:19:55.680Z,59.30
2022-08-21T00:22:24.149Z,59.50
2022-08-21T00:29:51.532Z,59.90
2022-08-21T00:32:23.369Z,60.00
2022-08-21T00:34:52.078Z,60.20
2022-08-21T00:37:21.174Z,60.30
2022-08-21T00:39:49.789Z,60.40
2022-08-21T00:42:20.884Z,60.50
2022-08-21T00:44:52.606Z,60.80
2022-08-21T00:47:21.849Z,60.80
2022-08-21T00:49:50.685Z,61.00
2022-08-21T00:52:24.230Z,61.10
2022-08-21T00:54:54.129Z,61.30
2022-08-21T00:57:32.084Z,61.50
2022-08-21T01:00:09.240Z,61.80
2022-08-21T01:02:37.676Z,62.00
2022-08-21T01:05:07.505Z,62.00
2022-08-21T01:07:36.341Z,62.10
2022-08-21T01:10:05.949Z,62.10
2022-08-21T01:12:34.934Z,62.10
2022-08-21T01:15:08.278Z,62.30
2022-08-21T01:17:37.782Z,62.40
2022-08-21T01:20:11.148Z,62.50
2022-08-21T01:22:41.537Z,62.50
2022-08-21T01:25:13.161Z,62.70
2022-08-21T01:27:41.726Z,62.70
2022-08-21T01:30:16.778Z,62.80
2022-08-21T01:32:45.364Z,62.90
2022-08-21T01:35:15.179Z,62.90
2022-08-21T01:37:45.956Z,63.00
2022-08-21T01:40:19.278Z,63.10
2022-08-21T01:42:49.661Z,63.10
2022-08-21T01:45:18.561Z,63.20
2022-08-21T01:47:47.795Z,63.30
2022-08-21T01:50:21.134Z,63.50
2022-08-21T01:52:52.920Z,63.50
2022-08-21T01:55:22.920Z,63.70
2022-08-21T02:00:24.893Z,64.00
2022-08-21T02:02:54.405Z,64.10
2022-08-21T02:05:23.109Z,64.30
2022-08-21T02:07:57.530Z,64.50
2022-08-21T02:10:30.736Z,64.70
2022-08-21T02:13:00.887Z,64.80
2022-08-21T02:15:31.181Z,65.00
2022-08-21T02:18:02.589Z,65.00
2022-08-21T02:20:37.433Z,65.10
2022-08-21T02:23:08.314Z,65.60
2022-08-21T02:25:37.466Z,65.20
2022-08-21T02:28:08.699Z,65.40
2022-08-21T02:30:41.145Z,65.50
2022-08-21T02:33:11.834Z,65.70
2022-08-21T02:35:43.561Z,65.70
2022-08-21T02:38:16.848Z,65.80
2022-08-21T02:40:50.919Z,66.00
2022-08-21T02:43:22.577Z,66.20
2022-08-21T02:45:52.436Z,66.40
2022-08-21T02:48:25.897Z,66.70
2022-08-21T02:50:57.561Z,67.00
2022-08-21T02:53:28.624Z,67.20
2022-08-21T02:56:00.796Z,67.40
2022-08-21T02:58:32.353Z,67.60
2022-08-21T03:01:01.146Z,67.70
2022-08-21T03:03:30.558Z,67.80
2022-08-21T03:05:59.171Z,67.90
2022-08-21T03:08:28.912Z,67.90
2022-08-21T03:10:57.940Z,68.00
2022-08-21T03:15:55.105Z,68.10
2022-08-21T03:23:21.872Z,68.20
2022-08-21T03:25:52.095Z,68.30
2022-08-21T03:28:24.746Z,68.20
2022-08-21T03:30:54.226Z,68.30
2022-08-21T03:33:23.759Z,68.40
2022-08-21T03:36:02.090Z,68.50
2022-08-21T03:38:33.248Z,68.60
2022-08-21T03:41:03.771Z,68.70
2022-08-21T03:43:32.889Z,68.80
2022-08-21T03:46:02.895Z,69.00
2022-08-21T03:48:31.993Z,69.20
2022-08-21T03:53:29.346Z,69.60
2022-08-21T03:55:58.165Z,69.80
2022-08-21T03:58:30.162Z,70.00
2022-08-21T04:01:01.887Z,70.10
2022-08-21T04:03:31.015Z,70.30
2022-08-21T04:08:28.661Z,70.60
2022-08-21T04:11:00.463Z,70.60
2022-08-21T04:13:30.343Z,70.80
2022-08-21T04:16:00.113Z,70.80
2022-08-21T04:20:59.746Z,71.10
2022-08-21T04:25:59.053Z,71.30
2022-08-21T04:28:30.472Z,71.50
2022-08-21T04:33:28.583Z,71.70
2022-08-21T04:38:25.690Z,71.90
2022-08-21T04:40:54.672Z,72.10
2022-08-21T04:43:24.399Z,72.30
2022-08-21T04:45:55.691Z,72.50
2022-08-21T04:48:26.165Z,72.60
2022-08-21T04:50:59.608Z,72.60
2022-08-21T04:53:35.729Z,72.50
2022-08-21T04:56:10.331Z,72.50
2022-08-21T04:58:42.552Z,72.60
2022-08-21T05:01:19.235Z,72.60
2022-08-21T05:03:49.880Z,72.80
2022-08-21T05:06:19.428Z,72.80
2022-08-21T05:08:50.965Z,72.90
2022-08-21T05:11:27.415Z,73.10
2022-08-21T05:13:57.224Z,73.10
2022-08-21T05:16:37.055Z,73.20
2022-08-21T05:19:07.260Z,73.30
2022-08-21T05:21:36.984Z,73.40
2022-08-21T05:24:05.813Z,73.50
2022-08-21T05:26:38.295Z,73.60
2022-08-21T05:29:15.137Z,73.60
2022-08-21T05:31:46.296Z,73.80
2022-08-21T05:34:16.097Z,73.90
2022-08-21T05:36:44.784Z,74.00
2022-08-21T05:39:13.187Z,74.20
2022-08-21T05:41:41.661Z,74.30
2022-08-21T05:44:10.594Z,74.30
2022-08-21T05:46:40.312Z,74.50
2022-08-21T05:49:10.212Z,74.50
2022-08-21T05:51:38.824Z,74.40
2022-08-21T05:54:07.448Z,74.40
2022-08-21T05:56:36.218Z,74.20
2022-08-21T05:59:08.725Z,74.20
2022-08-21T06:01:37.520Z,73.90
2022-08-21T06:04:06.960Z,73.80
2022-08-21T06:06:37.076Z,73.70
2022-08-21T06:09:06.093Z,74.20
2022-08-21T06:11:35.495Z,73.50
2022-08-21T06:14:05.137Z,74.00
2022-08-21T06:16:33.519Z,74.00
2022-08-21T06:19:03.063Z,73.20
2022-08-21T06:21:32.348Z,73.10
2022-08-21T06:24:02.148Z,73.00
2022-08-21T06:26:30.566Z,72.80
2022-08-21T06:28:59.207Z,72.70
2022-08-21T06:31:30.778Z,72.70
2022-08-21T06:33:59.468Z,73.10
2022-08-21T06:36:28.109Z,72.90
2022-08-21T06:38:56.992Z,72.00
2022-08-21T06:41:27.897Z,72.40
2022-08-21T06:43:58.053Z,72.30
2022-08-21T06:46:29.918Z,72.10
2022-08-21T06:48:59.181Z,71.90
2022-08-21T06:51:28.684Z,71.80
2022-08-21T06:53:59.457Z,71.60
2022-08-21T06:56:29.434Z,71.50
2022-08-21T06:59:00.205Z,71.40
2022-08-21T07:01:29.552Z,71.30
2022-08-21T07:03:58.117Z,70.60
2022-08-21T07:06:26.936Z,71.10
2022-08-21T07:08:58.934Z,70.60
2022-08-21T07:11:29.231Z,71.10
2022-08-21T07:13:58.066Z,71.40
2022-08-21T07:16:27.083Z,71.20
2022-08-21T07:18:55.522Z,70.50
2022-08-21T07:21:26.199Z,69.60
2022-08-21T07:23:55.557Z,68.60
2022-08-21T07:26:25.624Z,67.50
2022-08-21T07:28:56.188Z,66.30
2022-08-21T07:31:27.070Z,65.50
2022-08-21T07:33:55.832Z,64.60
2022-08-21T07:36:24.503Z,63.70
2022-08-21T07:38:53.287Z,62.80
2022-08-21T07:41:26.327Z,62.10
2022-08-21T07:43:56.248Z,61.40
2022-08-21T07:46:25.752Z,60.90
2022-08-21T07:48:54.473Z,60.30
2022-08-21T07:51:28.540Z,59.90
2022-08-21T07:54:00.205Z,59.50
2022-08-21T07:56:29.197Z,59.20
2022-08-21T07:58:58.935Z,58.90
2022-08-21T08:01:28.134Z,58.60
2022-08-21T08:03:57.188Z,58.50
2022-08-21T08:06:26.949Z,58.00
2022-08-21T08:08:55.358Z,57.40
2022-08-21T08:11:23.773Z,56.80
2022-08-21T08:13:54.597Z,56.10
2022-08-21T08:16:24.414Z,55.20
2022-08-21T08:18:52.781Z,54.50
2022-08-21T08:21:21.871Z,54.60
2022-08-21T08:23:50.740Z,53.80
2022-08-21T08:26:19.156Z,53.50
2022-08-21T08:28:48.709Z,53.20
2022-08-21T08:31:17.093Z,52.90
2022-08-21T08:33:46.962Z,52.50
2022-08-21T08:36:17.162Z,51.80
2022-08-21T08:38:48.889Z,51.30
2022-08-21T08:41:22.289Z,50.80
2022-08-21T08:43:55.687Z,50.50
2022-08-21T08:46:32.945Z,49.90
2022-08-21T08:49:08.798Z,49.70
2022-08-21T08:51:48.502Z,48.70
2022-08-21T08:54:32.443Z,48.90
2022-08-21T08:57:02.532Z,48.50
2022-08-21T08:59:40.589Z,48.30
2022-08-21T09:02:11.941Z,47.90
2022-08-21T09:04:42.810Z,47.50
2022-08-21T09:07:21.960Z,47.30
2022-08-21T09:10:04.104Z,47.10
2022-08-21T09:12:46.921Z,46.90
2022-08-21T09:15:30.523Z,46.60
2022-08-21T09:18:29.197Z,46.50
2022-08-21T09:21:11.958Z,46.80
2022-08-21T09:23:52.288Z,46.50
2022-08-21T09:26:24.812Z,45.70
2022-08-21T09:28:57.099Z,45.40
2022-08-21T09:31:31.439Z,45.10
2022-08-21T09:34:01.937Z,45.00
2022-08-21T09:36:40.408Z,44.60
2022-08-21T09:39:11.045Z,44.30
2022-08-21T09:41:40.864Z,44.10
2022-08-21T09:44:10.725Z,43.90
2022-08-21T09:46:39.194Z,43.60
2022-08-21T09:49:13.443Z,43.20
2022-08-21T09:51:55.190Z,43.10
2022-08-21T09:54:31.384Z,42.60
2022-08-21T09:57:20.365Z,41.70
2022-08-21T09:59:49.615Z,41.50
2022-08-21T10:02:32.797Z,41.30
2022-08-21T10:05:04.145Z,41.70
2022-08-21T10:07:38.402Z,41.10
2022-08-21T10:10:10.741Z,40.80
2022-08-21T10:12:51.853Z,40.90
2022-08-21T10:15:26.429Z,40.70
2022-08-21T10:18:05.937Z,40.60
2022-08-21T10:20:46.257Z,40.00
2022-08-21T10:23:37.764Z,39.80
2022-08-21T10:26:22.979Z,39.80
2022-08-21T10:29:02.597Z,39.60
2022-08-21T10:31:45.211Z,38.40
2022-08-21T10:34:31.652Z,38.80
2022-08-21T10:37:19.885Z,38.40
2022-08-21T10:40:03.089Z,38.60
2022-08-21T10:42:41.134Z,37.90
2022-08-21T10:45:24.437Z,38.50
2022-08-21T10:47:59.137Z,37.80
2022-08-21T10:50:33.978Z,37.60
2022-08-21T10:53:18.020Z,37.80
2022-08-21T10:55:58.195Z,37.80
2022-08-21T10:58:32.244Z,37.90
2022-08-21T11:01:14.203Z,37.60
2022-08-21T11:03:47.699Z,37.20
2022-08-21T11:06:22.864Z,36.90
2022-08-21T11:09:00.620Z,36.50
2022-08-21T11:11:38.252Z,36.30
2022-08-21T11:14:22.576Z,36.20
2022-08-21T11:16:59.431Z,35.90
2022-08-21T11:19:34.205Z,35.90
2022-08-21T11:22:15.402Z,35.70
2022-08-21T11:24:52.672Z,35.50
2022-08-21T11:27:28.674Z,35.30
2022-08-21T11:30:00.885Z,35.10
2022-08-21T11:32:57.452Z,35.00
2022-08-21T11:35:39.839Z,35.00
2022-08-21T11:38:30.481Z,34.80
2022-08-21T11:41:25.401Z,34.60
2022-08-21T11:44:14.091Z,34.50
2022-08-21T11:46:51.331Z,34.40
2022-08-21T11:49:43.708Z,34.10
2022-08-21T11:52:20.418Z,34.30
2022-08-21T11:54:55.502Z,34.10
2022-08-21T11:57:31.280Z,34.10
2022-08-21T12:00:09.286Z,34.00
2022-08-21T12:02:47.155Z,33.90
2022-08-21T12:05:31.898Z,33.80
2022-08-21T12:08:08.949Z,33.70
2022-08-21T12:10:41.913Z,33.40
2022-08-21T12:13:23.385Z,33.30
2022-08-21T12:16:13.852Z,32.50
2022-08-21T12:18:43.591Z,32.70
2022-08-21T12:21:26.925Z,32.70
2022-08-21T12:24:17.177Z,32.60
2022-08-21T12:26:53.099Z,32.50
2022-08-21T12:29:27.733Z,32.60
2022-08-21T12:32:02.213Z,32.30
2022-08-21T12:34:38.511Z,32.20
2022-08-21T12:37:17.401Z,32.30
2022-08-21T12:39:50.504Z,32.10
2022-08-21T12:42:24.941Z,31.90
2022-08-21T12:45:00.636Z,31.70
2022-08-21T12:47:36.844Z,31.40
2022-08-21T12:50:09.354Z,31.20
2022-08-21T12:52:46.122Z,31.20
2022-08-21T12:55:16.725Z,30.80
2022-08-21T12:57:45.103Z,30.70
2022-08-21T13:00:17.040Z,30.50
2022-08-21T13:02:51.721Z,30.40
2022-08-21T13:05:32.958Z,30.20
2022-08-21T13:08:06.481Z,30.00
2022-08-21T13:10:36.907Z,30.00
2022-08-21T13:13:12.297Z,30.00
2022-08-21T13:15:47.757Z,30.10
2022-08-21T13:18:26.257Z,30.10
2022-08-21T13:21:04.554Z,30.00
2022-08-21T13:23:33.544Z,30.40
2022-08-21T13:26:03.755Z,30.00
2022-08-21T13:28:38.660Z,30.10
2022-08-21T13:31:12.201Z,29.60
2022-08-21T13:33:43.469Z,29.90
2022-08-21T13:36:19.294Z,29.80
2022-08-21T13:38:48.498Z,29.30
2022-08-21T13:41:24.495Z,29.40
2022-08-21T13:44:03.029Z,29.50
2022-08-21T13:46:35.456Z,29.70
2022-08-21T13:49:07.977Z,30.00
2022-08-21T13:51:37.226Z,30.00
2022-08-21T13:54:23.142Z,29.90
2022-08-21T13:56:51.782Z,29.80
2022-08-21T13:59:29.857Z,29.80
2022-08-21T14:02:02.406Z,30.00
2022-08-21T14:04:40.148Z,29.90
2022-08-21T14:07:19.932Z,29.70
2022-08-21T14:09:49.485Z,29.50
2022-08-21T14:12:30.189Z,29.40
2022-08-21T14:15:00.660Z,29.30
2022-08-21T14:17:34.166Z,29.30
2022-08-21T14:20:06.363Z,29.00
2022-08-21T14:22:40.936Z,29.20
2022-08-21T14:25:15.309Z,29.00
2022-08-21T14:27:52.406Z,29.00
2022-08-21T14:30:32.582Z,29.00
2022-08-21T14:33:01.737Z,29.30
2022-08-21T14:35:31.970Z,29.20
2022-08-21T14:38:00.676Z,29.20
2022-08-21T14:40:29.465Z,29.60
2022-08-21T14:42:58.926Z,29.00
2022-08-21T14:45:31.068Z,28.80
2022-08-21T14:48:00.898Z,28.70
2022-08-21T14:50:30.813Z,28.60
2022-08-21T14:52:59.300Z,28.60
2022-08-21T14:55:29.065Z,28.50
2022-08-21T14:57:59.627Z,28.50
2022-08-21T15:00:35.735Z,28.40
2022-08-21T15:03:05.197Z,28.40
2022-08-21T15:05:34.970Z,28.50
2022-08-21T15:08:04.023Z,28.40
2022-08-21T15:10:34.868Z,28.40
2022-08-21T15:13:04.563Z,28.30
2022-08-21T15:15:40.657Z,28.30
2022-08-21T15:18:09.769Z,28.30
2022-08-21T15:20:40.254Z,28.20
2022-08-21T15:23:14.758Z,28.30
2022-08-21T15:25:44.475Z,28.30
2022-08-21T15:28:14.589Z,28.30
2022-08-21T15:30:44.828Z,28.30
2022-08-21T15:33:13.484Z,28.30
2022-08-21T15:35:43.320Z,28.40
2022-08-21T15:38:11.828Z,29.00
2022-08-21T15:40:47.737Z,28.60
2022-08-21T15:43:30.320Z,28.50
2022-08-21T15:46:01.700Z,28.40
2022-08-21T15:48:30.607Z,28.90
2022-08-21T15:51:00.334Z,28.40
2022-08-21T15:53:28.763Z,28.40
2022-08-21T15:55:57.148Z,28.30
2022-08-21T15:58:25.809Z,28.30
2022-08-21T16:00:54.193Z,28.30
2022-08-21T16:03:23.051Z,28.30
2022-08-21T16:05:53.356Z,28.80
2022-08-21T16:08:23.398Z,28.40
2022-08-21T16:10:52.892Z,28.40
2022-08-21T16:13:27.724Z,28.50
2022-08-21T16:15:56.435Z,28.50
2022-08-21T16:18:26.584Z,29.00
2022-08-21T16:20:55.406Z,28.40
2022-08-21T16:23:25.192Z,28.50
2022-08-21T16:25:53.924Z,28.50
2022-08-21T16:28:24.677Z,28.50
2022-08-21T16:30:53.404Z,28.60
2022-08-21T16:33:36.848Z,28.60
2022-08-21T16:36:07.293Z,28.70
2022-08-21T16:38:38.866Z,28.70
2022-08-21T16:41:12.107Z,29.00
2022-08-21T16:43:42.782Z,29.10
2022-08-21T16:46:14.112Z,28.90
2022-08-21T16:48:44.883Z,29.10
2022-08-21T16:51:13.835Z,29.30
2022-08-21T16:53:44.292Z,29.50
2022-08-21T16:56:16.725Z,29.70
2022-08-21T16:58:48.629Z,30.00
2022-08-21T17:01:20.971Z,30.20
2022-08-21T17:03:51.754Z,30.60
2022-08-21T17:08:53.037Z,31.20
2022-08-21T17:11:36.494Z,31.30
2022-08-21T17:14:12.840Z,31.50
2022-08-21T17:16:45.486Z,31.70
2022-08-21T17:21:43.344Z,32.00
2022-08-21T17:24:15.725Z,32.10
2022-08-21T17:26:45.605Z,32.30
2022-08-21T17:29:16.092Z,32.40
2022-08-21T17:31:45.648Z,32.50
2022-08-21T17:34:16.243Z,32.70
2022-08-21T17:36:44.622Z,32.80
2022-08-21T17:39:22.507Z,33.00
2022-08-21T17:42:06.496Z,33.00
2022-08-21T17:52:01.853Z,33.70
2022-08-21T17:54:32.100Z,33.90
2022-08-21T17:59:29.918Z,34.10
2022-08-21T18:02:01.436Z,34.30
2022-08-21T18:04:31.059Z,34.40
2022-08-21T18:06:59.521Z,34.60
2022-08-21T18:09:28.458Z,34.80
2022-08-21T18:12:00.107Z,35.00
2022-08-21T18:14:33.441Z,35.20
2022-08-21T18:17:03.269Z,35.50
2022-08-21T18:19:31.659Z,35.80
2022-08-21T18:24:33.352Z,36.10
2022-08-21T18:27:04.196Z,36.20
2022-08-21T18:29:32.913Z,36.30
2022-08-21T18:32:03.221Z,36.50
2022-08-21T18:34:34.904Z,36.60
2022-08-21T18:37:05.156Z,36.80
2022-08-21T18:39:36.793Z,36.90
2022-08-21T18:42:11.984Z,37.10
2022-08-21T18:44:40.980Z,37.60
2022-08-21T18:47:14.901Z,37.30
2022-08-21T18:52:20.284Z,37.80
2022-08-21T18:54:49.745Z,38.00
2022-08-21T18:57:20.904Z,38.20
2022-08-21T18:59:49.558Z,38.40
2022-08-21T19:02:17.913Z,38.60
2022-08-21T19:07:19.731Z,38.80
2022-08-21T19:10:07.613Z,38.90
2022-08-21T19:12:41.521Z,39.10
2022-08-21T19:15:15.582Z,39.30
2022-08-21T19:17:47.024Z,39.40
2022-08-21T19:20:36.427Z,39.60
2022-08-21T19:23:07.433Z,39.70
2022-08-21T19:25:37.373Z,39.90
2022-08-21T19:28:14.263Z,40.00
2022-08-21T19:30:58.211Z,40.20
2022-08-21T19:33:34.074Z,40.30
2022-08-21T19:36:04.290Z,40.60
2022-08-21T19:38:32.919Z,40.80
2022-08-21T19:41:02.159Z,41.00
2022-08-21T19:43:35.165Z,41.20
2022-08-21T19:48:33.583Z,41.70
2022-08-21T19:51:02.078Z,41.80
2022-08-21T19:53:30.443Z,41.90
2022-08-21T19:55:58.969Z,42.10
2022-08-21T19:58:38.914Z,42.20
2022-08-21T20:01:16.838Z,42.40
2022-08-21T20:03:53.812Z,42.50
2022-08-21T20:06:23.889Z,42.70
2022-08-21T20:08:54.676Z,42.90
2022-08-21T20:11:31.285Z,43.10
2022-08-21T20:14:02.124Z,43.20
2022-08-21T20:16:32.157Z,43.40
2022-08-21T20:21:43.481Z,44.10
2022-08-21T20:26:48.760Z,44.50
2022-08-21T20:29:23.863Z,44.70
2022-08-21T20:31:52.793Z,44.80
2022-08-21T20:34:21.328Z,44.90
2022-08-21T20:41:53.905Z,45.20
2022-08-21T20:44:29.657Z,45.20
2022-08-21T20:46:59.028Z,45.30
2022-08-21T20:49:34.595Z,45.40
2022-08-21T20:52:05.033Z,45.50
2022-08-21T20:54:41.627Z,45.70
2022-08-21T20:57:16.096Z,45.80
2022-08-21T20:59:54.932Z,45.90
2022-08-21T21:02:38.719Z,46.10
2022-08-21T21:05:16.112Z,46.30
2022-08-21T21:08:02.348Z,46.40
2022-08-21T21:10:38.352Z,46.60
2022-08-21T21:13:21.165Z,46.70
2022-08-21T21:15:56.596Z,46.80
2022-08-21T21:18:32.491Z,47.00
2022-08-21T21:21:06.222Z,47.40
2022-08-21T21:23:45.349Z,47.20
2022-08-21T21:26:19.385Z,47.30
2022-08-21T21:28:55.876Z,47.50
2022-08-21T21:31:29.541Z,47.50
2022-08-21T21:34:00.777Z,47.50
2022-08-21T21:36:43.791Z,47.60
2022-08-21T21:39:36.348Z,47.70
2022-08-21T21:42:12.542Z,48.10
2022-08-21T21:45:09.611Z,47.80
2022-08-21T21:47:59.060Z,48.00
2022-08-21T21:50:49.551Z,48.20
2022-08-21T21:53:37.994Z,48.40
2022-08-21T21:56:18.449Z,48.60
2022-08-21T21:59:29.924Z,48.70
2022-08-21T22:02:06.996Z,49.00
2022-08-21T22:04:50.967Z,49.40
2022-08-21T22:07:32.082Z,49.80
2022-08-21T22:10:30.058Z,50.20
2022-08-21T22:13:13.612Z,50.50
2022-08-21T22:15:55.041Z,51.00
2022-08-21T22:18:28.001Z,50.80
2022-08-21T22:21:05.290Z,51.10
2022-08-21T22:23:39.535Z,51.30
2022-08-21T22:26:14.488Z,51.50
2022-08-21T22:28:47.701Z,51.80
2022-08-21T22:31:21.624Z,52.00
2022-08-21T22:34:17.998Z,52.20
2022-08-21T22:36:59.391Z,52.40
2022-08-21T22:39:38.584Z,52.60
2022-08-21T22:42:13.519Z,52.90
2022-08-21T22:44:52.900Z,52.70
2022-08-21T22:47:24.988Z,52.80
2022-08-21T22:49:59.636Z,52.80
2022-08-21T22:52:35.269Z,52.90
2022-08-21T22:55:24.165Z,52.90
2022-08-21T22:58:10.526Z,52.90
2022-08-21T23:00:50.549Z,53.00
2022-08-21T23:03:33.987Z,52.90
2022-08-21T23:06:13.067Z,52.90
2022-08-21T23:08:44.068Z,52.80
2022-08-21T23:11:17.757Z,52.80
2022-08-21T23:13:51.016Z,52.80
2022-08-21T23:19:50.789Z,52.80
2022-08-21T23:22:37.292Z,52.80
2022-08-21T23:25:32.643Z,52.70
2022-08-21T23:28:13.629Z,52.60
2022-08-21T23:30:54.432Z,52.60
2022-08-21T23:33:44.845Z,52.60
2022-08-21T23:36:41.088Z,52.50
2022-08-21T23:39:26.069Z,52.40
2022-08-21T23:42:02.185Z,52.30
2022-08-21T23:44:47.317Z,52.20
2022-08-21T23:47:34.977Z,52.30
2022-08-21T23:50:14.012Z,52.30
2022-08-21T23:53:00.688Z,52.30
2022-08-21T23:56:01.112Z,52.30
2022-08-21T23:58:45.389Z,52.30
